createdAt,value
2022-10-07T13:06:50.447Z,23.70
2022-10-07T13:09:27.775Z,23.10
2022-10-07T13:12:06.135Z,23.00
2022-10-07T13:14:50.013Z,23.10
2022-10-07T13:17:49.148Z,23.20
2022-10-07T13:20:56.935Z,23.10
2022-10-07T13:23:48.267Z,23.00
2022-10-07T13:32:29.543Z,22.50
2022-10-07T13:35:21.928Z,22.70
2022-10-07T13:37:55.780Z,22.80
2022-10-07T13:40:36.732Z,22.90
2022-10-07T13:43:18.575Z,23.20
2022-10-07T13:45:49.512Z,23.20
2022-10-07T13:48:24.885Z,23.00
2022-10-07T13:50:57.822Z,22.80
2022-10-07T13:53:30.711Z,22.80
2022-10-07T13:56:31.853Z,22.60
2022-10-07T13:58:59.736Z,22.30
2022-10-07T14:01:29.674Z,22.20
2022-10-07T14:04:20.589Z,22.20
2022-10-07T14:07:14.500Z,22.10
2022-10-07T14:09:48.028Z,21.90
2022-10-07T14:12:37.004Z,22.00
2022-10-07T14:15:26.959Z,22.10
2022-10-07T14:18:05.739Z,22.20
2022-10-07T14:20:51.252Z,22.30
2022-10-07T14:23:18.454Z,22.40
2022-10-07T14:25:54.410Z,22.40
2022-10-07T14:28:27.136Z,22.50
2022-10-07T14:31:38.747Z,22.60
2022-10-07T14:34:39.197Z,22.80
2022-10-07T14:40:20.171Z,23.50
2022-10-07T14:42:50.567Z,23.70
2022-10-07T14:45:56.279Z,23.90
2022-10-07T14:48:27.604Z,23.80
2022-10-07T14:50:55.706Z,23.30
2022-10-07T14:53:23.769Z,23.20
2022-10-07T14:55:55.347Z,23.20
2022-10-07T14:58:22.469Z,23.10
2022-10-07T15:00:55.454Z,23.10
2022-10-07T15:03:23.558Z,23.10
2022-10-07T15:05:52.626Z,23.20
2022-10-07T15:08:19.438Z,23.20
2022-10-07T15:10:46.158Z,23.20
2022-10-07T15:13:15.615Z,23.10
2022-10-07T15:15:46.138Z,23.00
2022-10-07T15:18:21.538Z,23.00
2022-10-07T15:20:55.471Z,22.80
2022-10-07T15:23:23.208Z,22.70
2022-10-07T15:25:51.711Z,22.70
2022-10-07T15:28:18.496Z,22.60
2022-10-07T15:31:11.012Z,22.60
2022-10-07T15:33:39.156Z,22.60
2022-10-07T15:36:08.357Z,22.60
2022-10-07T15:38:34.966Z,22.60
2022-10-07T15:41:05.561Z,22.50
2022-10-07T15:43:33.850Z,22.50
2022-10-07T15:46:03.691Z,22.40
2022-10-07T15:48:30.526Z,22.30
2022-10-07T15:51:04.102Z,22.10
2022-10-07T15:53:34.192Z,22.00
2022-10-07T15:56:09.015Z,21.80
2022-10-07T15:58:40.972Z,21.70
2022-10-07T16:01:08.005Z,21.70
2022-10-07T16:03:45.703Z,21.60
2022-10-07T16:06:22.973Z,21.50
2022-10-07T16:08:53.917Z,21.40
2022-10-07T16:11:24.208Z,21.30
2022-10-07T16:14:01.245Z,21.10
2022-10-07T16:16:40.782Z,21.00
2022-10-07T16:19:08.111Z,21.00
2022-10-07T16:21:39.486Z,20.90
2022-10-07T16:24:17.664Z,20.80
2022-10-07T16:26:51.697Z,20.70
2022-10-07T16:29:40.450Z,20.60
2022-10-07T16:32:09.953Z,20.60
2022-10-07T16:34:43.787Z,20.60
2022-10-07T16:37:11.634Z,20.50
2022-10-07T16:39:39.568Z,20.40
2022-10-07T16:42:06.467Z,20.30
2022-10-07T16:44:35.560Z,20.30
2022-10-07T16:47:03.470Z,20.20
2022-10-07T16:49:35.580Z,20.10
2022-10-07T16:52:10.342Z,19.80
2022-10-07T16:54:47.507Z,19.60
2022-10-07T16:57:14.269Z,19.40
2022-10-07T16:59:41.056Z,19.20
2022-10-07T17:05:02.859Z,18.80
2022-10-07T17:07:30.916Z,18.80
2022-10-07T17:09:57.667Z,18.60
2022-10-07T17:12:27.102Z,18.60
2022-10-07T17:17:58.845Z,18.40
2022-10-07T17:20:54.970Z,18.30
2022-10-07T17:23:34.399Z,18.20
2022-10-07T17:26:10.118Z,18.00
2022-10-07T17:42:52.315Z,17.20
2022-10-07T17:45:35.643Z,17.20
2022-10-07T17:48:05.849Z,17.10
2022-10-07T17:50:38.407Z,17.00
2022-10-07T17:53:08.707Z,16.90
2022-10-07T17:55:35.427Z,16.90
2022-10-07T17:58:03.050Z,16.70
2022-10-07T18:00:31.617Z,16.60
2022-10-07T18:02:59.368Z,16.50
2022-10-07T18:05:27.266Z,16.40
2022-10-07T18:07:57.454Z,16.30
2022-10-07T18:10:50.128Z,16.20
2022-10-07T18:13:42.525Z,16.10
2022-10-07T18:16:13.842Z,16.10
2022-10-07T18:18:40.931Z,16.10
2022-10-07T18:21:08.817Z,16.20
2022-10-07T18:23:43.162Z,16.20
2022-10-07T18:26:39.304Z,16.20
2022-10-07T18:29:11.128Z,16.20
2022-10-07T18:32:05.628Z,16.20
2022-10-07T18:34:32.379Z,16.10
2022-10-07T18:37:02.679Z,15.90
2022-10-07T18:39:35.073Z,15.80
2022-10-07T18:42:05.010Z,15.70
2022-10-07T18:44:32.490Z,15.60
2022-10-07T18:47:06.171Z,15.50
2022-10-07T18:49:34.988Z,15.40
2022-10-07T18:52:01.881Z,15.30
2022-10-07T18:54:32.563Z,15.30
2022-10-07T18:57:07.159Z,15.20
2022-10-07T18:59:37.534Z,15.20
2022-10-07T19:02:04.300Z,15.20
2022-10-07T19:04:35.982Z,15.10
2022-10-07T19:07:17.013Z,15.10
2022-10-07T19:09:43.664Z,15.10
2022-10-07T19:12:31.386Z,15.10
2022-10-07T19:15:02.178Z,15.10
2022-10-07T19:17:28.858Z,15.10
2022-10-07T19:20:00.806Z,15.00
2022-10-07T19:22:33.020Z,15.00
2022-10-07T19:25:19.085Z,14.90
2022-10-07T19:27:52.991Z,14.90
2022-10-07T19:30:22.271Z,14.90
2022-10-07T19:32:50.612Z,14.90
2022-10-07T19:35:22.074Z,14.80
2022-10-07T19:37:56.132Z,14.80
2022-10-07T19:43:26.953Z,14.80
2022-10-07T19:46:02.023Z,14.70
2022-10-07T19:48:31.673Z,14.70
2022-10-07T19:51:07.783Z,14.70
2022-10-07T19:53:39.553Z,14.60
2022-10-07T19:56:15.050Z,14.50
2022-10-07T19:59:15.319Z,14.50
2022-10-07T20:01:48.930Z,14.40
2022-10-07T20:07:36.519Z,14.40
2022-10-07T20:10:07.223Z,14.30
2022-10-07T20:12:35.031Z,14.30
2022-10-07T20:15:02.737Z,14.30
2022-10-07T20:17:31.562Z,14.30
2022-10-07T20:19:58.351Z,14.30
2022-10-07T20:22:28.242Z,14.30
2022-10-07T20:42:24.882Z,14.30
2022-10-07T20:44:52.621Z,14.40
2022-10-07T20:47:21.326Z,14.40
2022-10-07T20:49:50.816Z,14.50
2022-10-07T20:52:21.185Z,14.50
2022-10-07T20:54:50.881Z,14.60
2022-10-07T20:57:22.746Z,14.60
2022-10-07T20:59:51.116Z,14.60
2022-10-07T21:02:24.233Z,14.60
2022-10-07T21:04:54.328Z,14.60
2022-10-07T21:07:22.025Z,14.70
2022-10-07T21:09:48.645Z,14.60
2022-10-07T21:12:17.491Z,14.60
2022-10-07T21:14:47.064Z,14.50
2022-10-07T21:17:16.284Z,14.50
2022-10-07T21:19:43.788Z,14.50
2022-10-07T21:22:10.385Z,14.50
2022-10-07T21:24:39.225Z,14.50
2022-10-07T21:27:11.847Z,14.40
2022-10-07T21:29:41.753Z,14.40
2022-10-07T21:32:10.521Z,14.50
2022-10-07T21:34:39.438Z,14.50
2022-10-07T21:37:12.233Z,14.50
2022-10-07T21:39:50.765Z,14.60
2022-10-07T21:42:20.527Z,14.60
2022-10-07T21:50:33.401Z,14.70
2022-10-07T21:53:04.030Z,14.70
2022-10-07T21:55:43.504Z,14.70
2022-10-07T21:59:03.243Z,14.70
2022-10-07T22:01:31.429Z,14.70
2022-10-07T22:04:00.514Z,14.80
2022-10-07T22:06:47.497Z,14.70
2022-10-07T22:09:15.039Z,14.70
2022-10-07T22:11:41.911Z,14.70
2022-10-07T22:14:12.506Z,14.70
2022-10-07T22:16:44.082Z,14.60
2022-10-07T22:19:16.842Z,14.60
2022-10-07T22:21:46.158Z,14.60
2022-10-07T22:24:18.416Z,14.60
2022-10-07T22:26:47.640Z,14.60
2022-10-07T22:29:19.998Z,14.50
2022-10-07T22:31:48.086Z,14.50
2022-10-07T22:34:35.329Z,14.40
2022-10-07T22:37:05.413Z,14.50
2022-10-07T22:39:32.082Z,14.40
2022-10-07T22:42:03.955Z,14.40
2022-10-07T22:44:35.294Z,14.40
2022-10-07T22:47:04.153Z,14.40
2022-10-07T22:49:31.532Z,14.30
2022-10-07T22:52:01.324Z,14.30
2022-10-07T22:54:32.461Z,14.20
2022-10-07T22:56:59.119Z,14.20
2022-10-07T22:59:25.708Z,14.20
2022-10-07T23:01:54.815Z,14.20
2022-10-07T23:04:27.387Z,14.20
2022-10-07T23:06:56.508Z,14.30
2022-10-07T23:09:24.277Z,14.30
2022-10-07T23:11:50.933Z,14.30
2022-10-07T23:14:23.930Z,14.30
2022-10-07T23:16:50.620Z,14.30
2022-10-07T23:19:17.628Z,14.30
2022-10-07T23:21:48.077Z,14.30
2022-10-07T23:24:19.569Z,14.30
2022-10-07T23:26:46.203Z,14.30
2022-10-07T23:29:13.075Z,14.30
2022-10-07T23:31:52.794Z,14.30
2022-10-07T23:34:20.234Z,14.30
2022-10-07T23:36:49.058Z,14.30
2022-10-07T23:39:17.279Z,14.30
2022-10-07T23:41:43.852Z,14.30
2022-10-07T23:44:12.945Z,14.30
2022-10-07T23:46:39.841Z,14.30
2022-10-07T23:49:08.898Z,14.30
2022-10-07T23:51:37.708Z,14.20
2022-10-07T23:54:06.657Z,14.20
2022-10-07T23:56:35.716Z,14.10
2022-10-07T23:59:02.578Z,14.10
